Quick Links (Output Below):   Max & Min Temps   /   Climate Reports   /   Zone Forecasts
River Forecasts   /   Forestry Forecasts   /   Aviation Forecasts   /   Radars   /   Features

Terminal Aerodrome Forecast (Harrison)

Pick a Site:
Arkadelphia | El Dorado | Fayetteville | Fort Smith | Harrison | Highfill | Hot Springs | Jonesboro
Little Rock | Monticello | Mountain Home | Pine Bluff | Texarkana
 Forecast 

KHRO 222320Z 2300/2324 15011KT 4SM -RA BR BKN005 WS020/20030KT
     FM230600 14010KT 5SM BR VCTS OVC008CB WS020/19035KT
      TEMPO 2306/2310 3SM TSRA BR BKN004 OVC008CB
     FM231000 13010KT 5SM -RA BR VCTS OVC008CB WS020/19040KT
     FM231800 14007KT 5SM BR VCSH SCT008 BKN012=


 Latest METARs (Observations) 
How to Decode METARs
01Z KHRO 230053Z AUTO 17013KT 9SM FEW025 BKN047 OVC065 11/11 A2995 RMK
         AO2 SLP138 T01110111
         
00Z KHRO 222353Z AUTO 16007KT 10SM SCT005 BKN047 BKN060 11/11 A2994
         RMK AO2 SLP136 60042 T01060106 10117 20106 58014
         
***** Today's Observations (Above) *****


23Z KHRO 222253Z AUTO 15010KT 9SM BKN005 OVC065 11/11 A2996 RMK AO2
         RAE43 SLP142 P0001 T01060106
         
22Z KHRO 222153Z AUTO 16012KT 4SM -RA BR FEW009 OVC060 11/11 A2997 RMK
         AO2 SLP148 P0008 T01060106
         
21Z KHRO 222053Z AUTO 15010KT 5SM RA BR OVC090 11/10 A2998 RMK AO2
         SLP151 P0009 60033 T01060100 58028
         
20Z KHRO 221953Z AUTO 17007KT 4SM RA BR FEW007 BKN014 OVC029 11/11
         A3003 RMK AO2 SLP166 P0022 T01110106
         
19Z KHRO 221853Z AUTO 15011KT 9SM -RA OVC011 11/11 A3003 RMK AO2
         RAE23B42 CIG 008V015 SLP169 P0002 T01110106
         
18Z KHRO 221753Z AUTO 15008KT 9SM -RA OVC011 12/11 A3007 RMK AO2 RAB44
         SLP183 P0000 60019 T01220106 10128 20111 58020
         
17Z KHRO 221653Z AUTO 18008KT 10SM BKN015 OVC080 12/11 A3011 RMK AO2
         SLP196 T01220106
         
16Z KHRO 221553Z AUTO 16012KT 10SM BKN075 OVC090 12/11 A3011 RMK AO2
         RAE37 SLP198 P0010 T01170106
         
***** Yesterday's Observations (Above) *****


Back to Main Page
http://www.srh.noaa.gov/lzk/qfcst.php

USA.gov is the U.S. government's official web portal to all federal, state and local government web resources and services.